Time;durP1;ratioP1;P1;durP2;ratioP2;P2;SDS_P1;SDS_P2;PMS_P1;PMS_P2;Temp;Humidity;BMP_temperature;BMP_pressure;BME280_temperature;BME280_humidity;BME280_pressure;Samples;Min_cycle;Max_cycle;Signal;HPM_P1;HPM_P2
2023/05/15 00:01:42;;;;;;;6.07;4.22;;;11.20;99.90;;;10.33;100.00;96924.41;6128711;23;20372;-79
2023/05/15 00:04:08;;;;;;;5.72;3.72;;;11.20;99.90;;;10.21;100.00;96924.66;6129891;23;20431;-80
2023/05/15 00:06:34;;;;;;;6.67;3.90;;;11.10;99.90;;;10.22;100.00;96931.53;6103298;23;20381;-80
2023/05/15 00:09:01;;;;;;;4.93;3.78;;;11.20;99.90;;;10.18;100.00;96927.78;6129283;23;20448;-79
2023/05/15 00:11:27;;;;;;;7.47;3.95;;;11.20;99.90;;;10.18;100.00;96925.16;6128606;23;20373;-79
2023/05/15 00:13:53;;;;;;;6.10;3.90;;;11.20;99.90;;;10.26;100.00;96921.22;6129116;23;20424;-79
2023/05/15 00:16:20;;;;;;;4.88;3.95;;;11.20;99.90;;;10.27;100.00;96922.81;6129772;23;20395;-80
2023/05/15 00:18:46;;;;;;;4.07;3.60;;;11.30;99.90;;;10.29;100.00;96913.56;6128861;23;20619;-79
2023/05/15 00:21:12;;;;;;;4.88;3.90;;;11.30;99.90;;;10.32;100.00;96920.97;6128616;23;20384;-79
2023/05/15 00:23:38;;;;;;;5.10;4.00;;;11.30;99.90;;;10.34;100.00;96918.84;6126521;23;20372;-79
2023/05/15 00:26:04;;;;;;;5.45;4.05;;;11.20;99.90;;;10.34;100.00;96910.13;6126968;23;20825;-79
2023/05/15 00:28:30;;;;;;;5.72;3.88;;;11.20;99.90;;;10.34;100.00;96905.63;6100765;23;20714;-79
2023/05/15 00:30:56;;;;;;;4.40;3.70;;;11.30;99.90;;;10.34;100.00;96904.84;6126566;23;20373;-78
2023/05/15 00:33:23;;;;;;;6.03;4.13;;;11.30;99.90;;;10.41;100.00;96905.38;6126045;23;20376;-78
2023/05/15 00:35:49;;;;;;;5.55;3.88;;;11.30;99.90;;;10.37;100.00;96899.84;6126309;23;20741;-79
2023/05/15 00:38:15;;;;;;;4.38;3.60;;;11.30;99.90;;;10.39;100.00;96904.84;6126492;23;20420;-80
2023/05/15 00:40:43;;;;;;;5.45;3.97;;;11.30;99.90;;;10.36;100.00;96902.72;6127384;23;20373;-79
2023/05/15 00:43:11;;;;;;;4.40;3.72;;;11.30;99.90;;;10.34;100.00;96894.25;6127165;23;20705;-79
2023/05/15 00:45:45;;;;;;;5.05;3.83;;;11.30;99.90;;;10.36;100.00;96898.25;6127649;23;20813;-79
2023/05/15 00:48:11;;;;;;;3.90;3.50;;;11.30;99.90;;;10.39;100.00;96894.25;6127471;23;20438;-79
2023/05/15 00:50:40;;;;;;;5.10;4.00;;;11.30;99.90;;;10.47;100.00;96891.91;6127889;23;20437;-78
2023/05/15 00:53:06;;;;;;;4.40;3.80;;;11.40;99.90;;;10.46;100.00;96894.78;6126988;23;20372;-80
2023/05/15 00:55:34;;;;;;;6.00;4.40;;;11.40;99.90;;;10.46;100.00;96890.31;6127667;23;20448;-80
2023/05/15 00:58:01;;;;;;;4.57;3.88;;;11.40;99.90;;;10.45;100.00;96891.34;6102821;23;20369;-80
2023/05/15 01:00:28;;;;;;;5.80;4.25;;;11.40;99.90;;;10.50;100.00;96890.59;6131218;23;20364;-79
2023/05/15 01:02:54;;;;;;;5.22;3.83;;;11.40;99.90;;;10.44;100.00;96895.09;6103559;23;20504;-80
2023/05/15 01:05:20;;;;;;;6.60;4.05;;;11.40;99.90;;;10.43;100.00;96890.06;6129280;23;20424;-79
2023/05/15 01:07:55;;;;;;;5.65;3.88;;;11.30;99.90;;;10.46;100.00;96895.59;6129944;23;20385;-80
2023/05/15 01:10:21;;;;;;;4.38;3.97;;;11.40;99.90;;;10.41;100.00;96900.88;6129744;23;20369;-80
2023/05/15 01:12:52;;;;;;;6.20;3.70;;;11.30;99.90;;;10.41;100.00;96895.59;6102675;23;20376;-80
2023/05/15 01:15:18;;;;;;;4.97;4.03;;;11.30;99.90;;;10.41;100.00;96900.09;6130310;23;20460;-80
2023/05/15 01:17:44;;;;;;;4.78;4.07;;;11.30;99.90;;;10.43;100.00;96906.72;6129744;23;20376;-80
2023/05/15 01:20:15;;;;;;;4.35;3.88;;;11.30;99.90;;;10.44;100.00;96900.38;6129866;23;20369;-80
2023/05/15 01:23:08;;;;;;;7.45;4.80;;;11.40;99.90;;;10.46;100.00;96903.53;6129648;23;20376;-80
2023/05/15 01:26:29;;;;;;;5.60;4.10;;;11.40;99.90;;;10.42;100.00;96899.84;6129685;23;20389;-81
2023/05/15 01:29:03;;;;;;;7.03;4.50;;;11.30;99.90;;;10.40;100.00;96901.94;6129053;23;20480;-79
2023/05/15 01:31:32;;;;;;;5.80;4.10;;;11.30;99.90;;;10.33;100.00;96901.41;6126858;23;20420;-79
2023/05/15 01:34:05;;;;;;;4.80;4.10;;;11.20;99.90;;;10.30;100.00;96899.25;6126250;23;20443;-79
2023/05/15 01:36:37;;;;;;;5.28;4.13;;;11.20;99.90;;;10.27;100.00;96891.84;6125593;23;20375;-79
2023/05/15 01:39:04;;;;;;;5.00;3.92;;;11.20;99.90;;;10.22;100.00;96894.50;6126158;23;20452;-79
2023/05/15 01:41:35;;;;;;;5.32;4.00;;;11.20;99.90;;;10.23;100.00;96900.56;6126014;23;20368;-79
2023/05/15 01:44:07;;;;;;;5.68;4.15;;;11.10;99.90;;;10.19;100.00;96902.16;6126240;23;20412;-79
2023/05/15 01:46:37;;;;;;;5.93;3.92;;;11.10;99.90;;;10.21;100.00;96894.75;6126099;23;20395;-79
2023/05/15 01:49:03;;;;;;;4.65;3.75;;;11.10;99.90;;;10.21;100.00;96900.03;6125172;23;20455;-79
2023/05/15 01:51:31;;;;;;;4.63;3.83;;;11.10;99.90;;;10.24;100.00;96895.00;6125641;23;20704;-79
2023/05/15 01:53:58;;;;;;;5.30;4.20;;;11.10;99.90;;;10.24;100.00;96892.38;6125798;23;20447;-80
2023/05/15 01:56:26;;;;;;;5.45;3.80;;;11.20;99.90;;;10.30;100.00;96893.97;6099777;23;20463;-79
2023/05/15 01:58:52;;;;;;;5.63;3.67;;;11.20;99.90;;;10.31;100.00;96898.22;6125980;23;20365;-80
2023/05/15 02:01:21;;;;;;;5.13;3.60;;;11.30;99.90;;;10.32;100.00;96907.72;6125547;23;20369;-80
2023/05/15 02:03:48;;;;;;;6.03;4.35;;;11.20;99.90;;;10.40;100.00;96895.84;6126669;23;20895;-79
2023/05/15 02:06:16;;;;;;;7.82;4.22;;;11.30;99.90;;;10.39;100.00;96900.34;6126248;23;20373;-79
2023/05/15 02:08:43;;;;;;;4.15;3.65;;;11.30;99.90;;;10.35;100.00;96894.00;6125881;23;20428;-79
2023/05/15 02:11:09;;;;;;;6.32;4.00;;;11.30;99.90;;;10.35;100.00;96899.28;6125706;23;20365;-79
2023/05/15 02:13:35;;;;;;;6.50;3.47;;;11.30;99.90;;;10.34;100.00;96908.28;6099151;23;20544;-79
2023/05/15 02:16:01;;;;;;;6.35;3.78;;;11.30;99.90;;;10.34;100.00;96910.13;6126346;23;20408;-80
2023/05/15 02:18:29;;;;;;;4.07;3.63;;;11.30;99.90;;;10.33;100.00;96901.41;6126691;23;20376;-79
2023/05/15 02:20:54;;;;;;;6.60;4.38;;;11.30;99.90;;;10.39;100.00;96899.53;6125934;23;20403;-79
2023/05/15 02:23:20;;;;;;;5.50;3.78;;;11.30;99.90;;;10.36;100.00;96900.09;6125171;23;20396;-79
2023/05/15 02:26:00;;;;;;;5.30;3.95;;;11.30;99.90;;;10.35;100.00;96903.78;6125610;23;20372;-79
2023/05/15 02:28:32;;;;;;;4.53;3.80;;;11.30;99.90;;;10.38;100.00;96900.59;6125524;23;20385;-79
2023/05/15 02:31:06;;;;;;;4.72;3.88;;;11.30;99.90;;;10.34;100.00;96896.91;6125821;23;20373;-79
2023/05/15 02:33:41;;;;;;;4.82;3.90;;;11.30;99.90;;;10.31;100.00;96897.41;6125605;23;20372;-79
2023/05/15 02:36:10;;;;;;;3.92;3.47;;;11.20;99.90;;;10.32;100.00;96897.16;6125540;23;20396;-79
2023/05/15 02:38:43;;;;;;;3.85;3.45;;;11.20;99.90;;;10.31;100.00;96898.22;6126023;23;20385;-79
2023/05/15 02:41:10;;;;;;;6.32;3.70;;;11.20;99.90;;;10.31;100.00;96900.84;6125431;23;20496;-80
2023/05/15 02:43:39;;;;;;;4.30;3.70;;;11.20;99.90;;;10.29;100.00;96904.84;6125443;23;20848;-80
2023/05/15 02:46:06;;;;;;;5.13;3.75;;;11.20;99.90;;;10.31;100.00;96894.75;6125578;23;20428;-80
2023/05/15 02:48:36;;;;;;;6.40;4.50;;;11.20;99.90;;;10.32;100.00;96899.81;6125106;23;20474;-80
2023/05/15 02:51:03;;;;;;;5.93;3.90;;;11.20;99.90;;;10.29;100.00;96902.97;6100322;23;20377;-79
2023/05/15 02:53:29;;;;;;;7.45;4.25;;;11.20;99.90;;;10.29;100.00;96902.19;6125839;23;20379;-79
2023/05/15 02:55:55;;;;;;;6.20;4.05;;;11.20;99.90;;;10.32;100.00;96909.59;6126112;23;20368;-79
2023/05/15 02:58:21;;;;;;;4.25;3.67;;;11.20;99.90;;;10.32;100.00;96899.00;6125614;23;20376;-79
2023/05/15 03:00:47;;;;;;;4.30;3.70;;;11.20;99.90;;;10.37;100.00;96901.69;6126598;23;20389;-79
2023/05/15 03:03:13;;;;;;;6.30;4.00;;;11.30;99.90;;;10.40;100.00;96896.66;6126278;23;20458;-79
2023/05/15 03:05:40;;;;;;;7.47;4.60;;;11.30;99.90;;;10.48;100.00;96895.34;6126418;23;20372;-79
2023/05/15 03:08:06;;;;;;;4.55;3.90;;;11.30;99.90;;;10.51;100.00;96894.81;6126900;23;20399;-80
2023/05/15 03:10:32;;;;;;;4.53;3.40;;;11.40;99.90;;;10.56;100.00;96894.81;6126502;23;20373;-80
2023/05/15 03:12:58;;;;;;;5.15;3.80;;;11.50;99.90;;;10.62;100.00;96891.13;6125993;23;20390;-80
2023/05/15 03:15:24;;;;;;;4.43;3.78;;;11.50;99.90;;;10.66;100.00;96889.56;6126284;23;20373;-80
2023/05/15 03:17:50;;;;;;;5.05;3.85;;;11.50;99.90;;;10.70;100.00;96895.91;6126545;23;20368;-80
2023/05/15 03:20:16;;;;;;;4.77;3.60;;;11.60;99.90;;;10.75;100.00;96887.19;6127135;23;20981;-80
2023/05/15 03:22:44;;;;;;;5.82;3.67;;;11.60;99.90;;;10.76;100.00;96888.75;6126898;23;20373;-79
2023/05/15 03:25:10;;;;;;;5.03;4.10;;;11.60;99.90;;;10.78;100.00;96892.72;6126789;23;20377;-79
2023/05/15 03:27:36;;;;;;;5.23;4.30;;;11.60;99.90;;;10.79;100.00;96886.38;6127189;23;20471;-80
2023/05/15 03:30:03;;;;;;;7.07;4.90;;;11.70;99.90;;;10.81;100.00;96886.91;6127035;23;20376;-80
2023/05/15 03:32:29;;;;;;;6.68;4.70;;;11.70;99.90;;;10.87;100.00;96885.06;6126970;23;20365;-81
2023/05/15 03:34:55;;;;;;;5.93;4.70;;;11.70;99.90;;;10.91;100.00;96893.25;6127254;23;20432;-80
2023/05/15 03:37:21;;;;;;;5.18;4.10;;;11.80;99.90;;;10.92;100.00;96885.06;6126820;23;20372;-79
2023/05/15 03:39:48;;;;;;;5.13;4.30;;;11.80;99.90;;;10.92;100.00;96884.25;6126856;23;20369;-79
2023/05/15 03:42:14;;;;;;;5.22;4.05;;;11.80;99.90;;;10.94;100.00;96885.59;6125795;23;20373;-79
2023/05/15 03:44:40;;;;;;;6.15;4.40;;;11.80;99.90;;;10.94;100.00;96880.28;6126143;23;20729;-79
2023/05/15 03:47:06;;;;;;;6.78;4.78;;;11.80;99.90;;;10.98;100.00;96888.47;6125793;23;20806;-80
2023/05/15 03:49:32;;;;;;;5.70;4.60;;;11.80;99.90;;;10.98;100.00;96881.34;6125886;23;20376;-79
2023/05/15 03:51:58;;;;;;;7.38;4.90;;;11.80;99.90;;;11.02;100.00;96882.41;6125555;23;20833;-79
2023/05/15 03:54:25;;;;;;;5.90;4.90;;;11.90;99.90;;;11.02;100.00;96884.25;6126354;23;20371;-79
2023/05/15 03:56:52;;;;;;;6.18;4.68;;;11.90;99.90;;;11.04;100.00;96882.94;6127457;23;20455;-79
2023/05/15 03:59:18;;;;;;;5.18;4.68;;;11.90;99.90;;;11.06;100.00;96883.44;6128172;23;20464;-79
2023/05/15 04:01:44;;;;;;;6.03;4.72;;;11.90;99.90;;;11.09;100.00;96884.78;6127972;23;20705;-79
2023/05/15 04:04:09;;;;;;;7.40;4.75;;;11.90;99.90;;;11.10;100.00;96889.81;6127312;23;20439;-83
2023/05/15 04:06:35;;;;;;;7.25;4.95;;;12.00;99.90;;;11.11;100.00;96880.03;6127049;23;20367;-82
2023/05/15 04:09:01;;;;;;;6.03;5.13;;;12.00;99.90;;;11.12;100.00;96887.72;6126814;23;20372;-81
2023/05/15 04:11:27;;;;;;;5.70;4.67;;;12.00;99.90;;;11.12;100.00;96887.72;6125799;23;20696;-83
2023/05/15 04:13:54;;;;;;;6.70;4.70;;;12.00;99.90;;;11.14;100.00;96890.88;6130959;23;20380;-84
2023/05/15 04:16:20;;;;;;;5.80;4.50;;;12.00;99.90;;;11.18;100.00;96901.75;6135526;23;20380;-80
2023/05/15 04:18:46;;;;;;;4.78;4.28;;;12.00;99.90;;;11.19;100.00;96895.38;6135105;23;20386;-83
2023/05/15 04:21:12;;;;;;;6.90;5.40;;;12.10;99.90;;;11.23;100.00;96896.44;6129344;23;20832;-82
2023/05/15 04:23:40;;;;;;;9.27;5.00;;;12.10;99.90;;;11.25;100.00;96887.16;6129829;23;20380;-84
2023/05/15 04:26:07;;;;;;;6.80;5.00;;;12.10;99.90;;;11.32;100.00;96891.38;6102979;23;20408;-82
2023/05/15 04:28:33;;;;;;;6.07;5.00;;;12.20;99.90;;;11.35;100.00;96886.34;6128198;23;20443;-79
2023/05/15 04:31:00;;;;;;;6.72;4.70;;;12.10;99.90;;;11.40;100.00;96889.00;6127144;23;20408;-81
2023/05/15 04:33:26;;;;;;;6.15;4.88;;;12.20;99.90;;;11.45;100.00;96890.81;6127392;23;20373;-81
2023/05/15 04:35:52;;;;;;;7.40;5.00;;;12.30;99.90;;;11.46;100.00;96887.91;6126949;23;20859;-81
2023/05/15 04:38:18;;;;;;;5.88;4.80;;;12.30;99.90;;;11.48;100.00;96890.31;6127351;23;20365;-81
2023/05/15 04:40:45;;;;;;;6.35;4.97;;;12.30;99.90;;;11.50;100.00;96888.94;6127347;23;20365;-81
2023/05/15 04:43:10;;;;;;;10.45;5.90;;;12.30;99.90;;;11.50;100.00;96888.94;6127060;23;20380;-80
2023/05/15 04:45:37;;;;;;;5.53;4.97;;;12.30;99.90;;;11.54;100.00;96892.66;6126831;23;20369;-81
2023/05/15 04:48:05;;;;;;;6.05;4.75;;;12.40;99.90;;;11.57;100.00;96894.78;6127591;23;20381;-81
2023/05/15 04:50:31;;;;;;;6.47;5.25;;;12.40;99.90;;;11.64;100.00;96894.50;6127410;23;20479;-81
2023/05/15 04:52:57;;;;;;;6.40;5.20;;;12.40;99.90;;;11.70;100.00;96889.97;6127931;23;20841;-81
2023/05/15 04:55:23;;;;;;;7.72;5.57;;;12.50;99.90;;;11.76;100.00;96887.06;6128284;23;20373;-82
2023/05/15 04:57:48;;;;;;;11.23;6.45;;;12.50;99.90;;;11.91;100.00;96897.63;6131726;23;20369;-80
2023/05/15 05:00:15;;;;;;;7.75;6.03;;;12.60;99.90;;;11.88;100.00;96894.72;6125310;23;20433;-80
2023/05/15 05:02:44;;;;;;;8.05;5.47;;;12.70;99.90;;;11.91;100.00;96889.66;6125542;23;20474;-82
2023/05/15 05:05:13;;;;;;;7.85;5.88;;;12.70;99.90;;;11.97;100.00;96899.19;6125419;23;20863;-81
2023/05/15 05:07:39;;;;;;;7.72;5.32;;;12.70;99.90;;;12.01;100.00;96897.59;6120015;23;20491;-80
2023/05/15 05:10:07;;;;;;;7.28;6.07;;;12.80;99.90;;;12.00;100.00;96898.66;6125827;23;20372;-81
2023/05/15 05:12:33;;;;;;;5.57;4.78;;;12.80;99.90;;;12.02;100.00;96896.53;6124915;23;20397;-81
2023/05/15 05:14:59;;;;;;;7.68;5.90;;;12.80;99.90;;;12.05;100.00;96897.03;6125450;23;20368;-81
2023/05/15 05:17:25;;;;;;;8.00;5.47;;;12.80;99.90;;;12.03;100.00;96903.41;6126044;23;20419;-82
2023/05/15 05:19:51;;;;;;;6.63;5.23;;;12.80;99.90;;;12.06;100.00;96907.38;6122855;23;20433;-81
2023/05/15 05:22:18;;;;;;;9.27;6.23;;;12.80;99.90;;;12.06;100.00;96909.22;6119008;23;20841;-81
2023/05/15 05:24:44;;;;;;;8.95;5.60;;;12.80;99.90;;;12.09;100.00;96914.00;6121307;23;20373;-81
2023/05/15 05:27:10;;;;;;;9.75;6.13;;;12.90;99.90;;;12.10;100.00;96912.94;6123906;23;20924;-81
2023/05/15 05:29:36;;;;;;;8.23;5.55;;;12.90;99.90;;;12.11;100.00;96907.34;6124683;23;20449;-81
2023/05/15 05:32:02;;;;;;;7.53;5.80;;;12.90;99.90;;;12.10;100.00;96916.41;6124177;23;20447;-82
2023/05/15 05:34:28;;;;;;;9.48;6.80;;;12.90;99.90;;;12.21;100.00;96919.78;6126880;23;20383;-80
2023/05/15 05:36:54;;;;;;;7.40;5.70;;;12.90;99.90;;;12.18;100.00;96913.16;6124884;23;20459;-80
2023/05/15 05:39:21;;;;;;;8.80;7.00;;;13.00;99.90;;;12.19;100.00;96916.59;6124736;23;20444;-80
2023/05/15 05:41:47;;;;;;;8.30;6.53;;;12.90;99.90;;;12.16;100.00;96911.84;6124936;23;20424;-80
2023/05/15 05:44:13;;;;;;;13.02;7.57;;;13.00;99.90;;;12.22;100.00;96913.41;6124354;23;20745;-81
2023/05/15 05:46:39;;;;;;;9.38;6.90;;;13.00;99.90;;;12.19;100.00;96916.59;6125643;23;20782;-81
2023/05/15 05:49:05;;;;;;;10.85;6.90;;;13.00;99.90;;;12.26;100.00;96911.78;6127374;23;20379;-81
2023/05/15 05:51:31;;;;;;;9.13;7.00;;;13.00;99.90;;;12.28;100.00;96912.31;6124421;23;20512;-80
2023/05/15 05:53:57;;;;;;;9.98;7.55;;;13.10;99.90;;;12.34;100.00;96908.56;6125454;23;20369;-80
2023/05/15 05:56:25;;;;;;;10.68;7.03;;;13.10;99.90;;;12.40;100.00;96910.91;6124957;23;20373;-80
2023/05/15 05:58:51;;;;;;;10.23;7.28;;;13.20;99.90;;;12.49;100.00;96910.34;6125549;23;20512;-80
2023/05/15 06:01:17;;;;;;;8.20;6.93;;;13.30;99.90;;;12.63;100.00;96912.09;6125716;23;20373;-82
2023/05/15 06:03:43;;;;;;;11.20;7.27;;;13.30;99.90;;;12.71;100.00;96918.69;6125860;23;20452;-82
2023/05/15 06:06:09;;;;;;;10.80;7.57;;;13.40;99.90;;;12.75;100.00;96917.09;6124456;23;20373;-83
2023/05/15 06:08:35;;;;;;;10.23;7.93;;;13.50;99.90;;;12.77;100.00;96918.41;6120346;23;20830;-83
2023/05/15 06:11:02;;;;;;;9.10;7.10;;;13.50;99.90;;;12.83;100.00;96916.50;6123681;23;20400;-85
2023/05/15 06:13:30;;;;;;;7.00;5.93;;;13.60;99.90;;;12.87;100.00;96920.19;6126111;23;20372;-84
2023/05/15 06:15:56;;;;;;;7.70;5.82;;;13.60;99.90;;;12.89;100.00;96918.06;6130299;23;20755;-85
2023/05/15 06:18:22;;;;;;;9.35;6.45;;;13.60;99.90;;;12.92;100.00;96922.84;6104129;23;20377;-83
2023/05/15 06:20:48;;;;;;;9.32;7.13;;;13.60;99.90;;;12.92;100.00;96914.84;6128563;23;20396;-84
2023/05/15 06:23:14;;;;;;;9.05;5.70;;;13.70;99.90;;;12.91;100.00;96923.09;6127111;23;20365;-84
2023/05/15 06:25:40;;;;;;;8.27;6.22;;;13.60;99.90;;;12.91;100.00;96917.78;6130237;23;20411;-84
2023/05/15 06:28:06;;;;;;;9.37;6.67;;;13.70;99.90;;;12.92;100.00;96922.03;6130845;23;20391;-86
2023/05/15 06:30:35;;;;;;;6.47;5.40;;;13.60;99.90;;;12.92;100.00;96919.38;6101403;23;20380;-85
2023/05/15 06:33:01;;;;;;;7.70;5.40;;;13.60;99.90;;;12.99;100.00;96925.16;6104559;23;20376;-86
2023/05/15 06:35:27;;;;;;;7.22;4.93;;;13.70;99.90;;;13.03;100.00;96929.63;6131748;23;20404;-83
2023/05/15 06:37:52;;;;;;;8.85;6.80;;;13.80;99.90;;;13.08;100.00;96926.94;6135064;23;20896;-85
2023/05/15 06:40:20;;;;;;;8.18;6.53;;;13.80;99.90;;;13.23;100.00;96926.03;6129808;23;20911;-83
2023/05/15 06:42:46;;;;;;;11.70;6.00;;;13.90;99.90;;;13.24;100.00;96926.84;6106569;23;20941;-87
2023/05/15 06:45:12;;;;;;;9.38;6.50;;;13.90;99.90;;;13.26;100.00;96930.81;6129043;23;20460;-84
2023/05/15 06:47:40;;;;;;;8.45;6.65;;;13.90;99.90;;;13.27;100.00;96931.63;6130998;23;20387;-76
2023/05/15 06:50:07;;;;;;;7.85;5.75;;;14.00;99.90;;;13.23;100.00;96931.38;6128525;23;20373;-76
2023/05/15 06:52:33;;;;;;;7.00;5.63;;;14.00;99.90;;;13.25;100.00;96929.22;6126487;23;20381;-78
2023/05/15 06:54:58;;;;;;;7.50;5.80;;;14.00;99.90;;;13.26;100.00;96927.38;6128671;23;20544;-78
2023/05/15 06:57:25;;;;;;;9.10;4.93;;;14.00;99.90;;;13.29;100.00;96932.94;6129415;23;20369;-78
2023/05/15 06:59:51;;;;;;;7.35;5.30;;;14.00;99.90;;;13.31;100.00;96922.78;6128847;23;20428;-77
2023/05/15 07:02:17;;;;;;;6.10;4.75;;;14.00;99.90;;;13.33;100.00;96928.63;6128268;23;20369;-78
2023/05/15 07:04:44;;;;;;;6.35;5.35;;;14.00;99.90;;;13.45;100.00;96931.72;6128263;23;20469;-77
2023/05/15 07:07:10;;;;;;;6.88;4.60;;;14.10;99.90;;;13.47;100.00;96926.91;6127899;23;20384;-78
2023/05/15 07:09:36;;;;;;;9.43;5.18;;;14.20;99.90;;;13.53;100.00;96931.09;6127928;23;20745;-76
2023/05/15 07:12:03;;;;;;;7.03;4.88;;;14.20;99.90;;;13.51;100.00;96929.81;6129419;23;20452;-77
2023/05/15 07:14:29;;;;;;;7.22;5.18;;;14.20;99.90;;;13.52;100.00;96931.41;6105193;23;20377;-79
2023/05/15 07:16:55;;;;;;;8.77;5.28;;;14.30;99.90;;;13.48;100.00;96925.84;6128412;23;20368;-77
2023/05/15 07:19:21;;;;;;;5.80;4.68;;;14.20;99.90;;;13.60;100.00;96930.00;6128076;23;20562;-77
2023/05/15 07:21:48;;;;;;;9.40;4.85;;;14.30;99.90;;;13.60;100.00;96930.00;6128116;23;20427;-77
2023/05/15 07:24:14;;;;;;;7.33;4.83;;;14.30;99.90;;;13.65;100.00;96922.75;6126127;23;20372;-77
2023/05/15 07:26:40;;;;;;;5.35;4.00;;;14.30;99.90;;;13.67;100.00;96928.59;6127366;23;20689;-79
2023/05/15 07:29:06;;;;;;;7.43;4.45;;;14.40;99.90;;;13.69;100.00;96934.41;6127777;23;20892;-78
2023/05/15 07:31:32;;;;;;;15.45;4.88;;;14.40;99.90;;;13.70;100.00;96925.34;6100694;23;20505;-77
2023/05/15 07:33:59;;;;;;;5.93;4.28;;;14.40;99.90;;;13.78;100.00;96934.56;6125432;23;20369;-78
2023/05/15 07:36:25;;;;;;;6.63;4.38;;;14.50;99.90;;;13.80;100.00;96930.56;6126797;23;20377;-79
2023/05/15 07:38:53;;;;;;;6.80;4.17;;;14.50;99.90;;;13.83;100.00;96926.56;6126179;23;20369;-78
2023/05/15 07:41:19;;;;;;;4.90;4.00;;;14.50;99.90;;;13.87;100.00;96931.03;6125422;23;20379;-77
2023/05/15 07:43:45;;;;;;;4.70;3.73;;;14.60;99.90;;;13.95;100.00;96933.06;6124402;23;20373;-77
2023/05/15 07:46:11;;;;;;;4.80;4.27;;;14.60;99.90;;;13.97;100.00;96932.78;6081527;23;20382;-78
2023/05/15 07:48:37;;;;;;;5.78;3.97;;;14.70;99.90;;;14.06;100.00;96940.94;6118282;23;20381;-77
2023/05/15 07:51:05;;;;;;;5.70;3.90;;;14.70;99.90;;;14.06;100.00;96936.38;6125767;23;20435;-77
2023/05/15 07:53:32;;;;;;;8.38;4.75;;;14.80;99.90;;;14.19;100.00;96949.03;6124510;23;20439;-77
2023/05/15 07:56:00;;;;;;;6.47;4.40;;;14.80;99.90;;;14.19;100.00;96937.59;6125166;23;20419;-77
2023/05/15 07:58:27;;;;;;;7.60;4.32;;;14.90;99.90;;;14.25;100.00;96937.25;6126514;23;20369;-78
2023/05/15 08:00:53;;;;;;;6.83;4.10;;;14.90;99.90;;;14.39;100.00;96929.38;6126263;23;20430;-77
2023/05/15 08:03:19;;;;;;;5.60;3.53;;;15.10;99.90;;;14.37;100.00;96936.03;6125540;23;20459;-77
2023/05/15 08:05:46;;;;;;;5.10;3.53;;;15.10;99.90;;;14.35;100.00;96939.00;6126388;23;20432;-77
2023/05/15 08:08:13;;;;;;;6.20;3.70;;;15.10;99.90;;;14.37;100.00;96939.47;6125859;23;20385;-77
2023/05/15 08:10:39;;;;;;;5.35;3.97;;;15.00;99.90;;;14.44;100.00;96942.59;6125351;23;20373;-77
2023/05/15 08:13:06;;;;;;;3.75;3.33;;;15.10;99.90;;;14.50;100.00;96930.84;6124468;23;20438;-77
2023/05/15 08:15:32;;;;;;;5.40;3.40;;;15.10;99.90;;;14.58;100.00;96924.06;6124948;23;20387;-76
2023/05/15 08:17:58;;;;;;;6.30;3.72;;;15.20;99.90;;;14.61;100.00;96916.28;6125962;23;20377;-77
2023/05/15 08:20:24;;;;;;;7.15;3.88;;;15.20;99.90;;;14.64;100.00;96920.25;6124026;23;20884;-77
2023/05/15 08:22:50;;;;;;;5.55;3.92;;;15.30;99.90;;;14.81;100.00;96917.84;6124558;23;20468;-83
2023/05/15 08:25:16;;;;;;;7.03;3.83;;;15.40;99.90;;;15.13;100.00;96925.09;6130449;23;20454;-82
2023/05/15 08:27:42;;;;;;;7.60;4.18;;;15.70;99.90;;;15.24;100.00;96931.06;6128095;23;20380;-81
2023/05/15 08:30:12;;;;;;;7.30;4.13;;;15.80;99.90;;;15.28;100.00;96918.72;6130715;23;20507;-82
2023/05/15 08:32:40;;;;;;;5.70;3.85;;;15.90;99.20;;;15.21;100.00;96913.78;6126503;23;20400;-82
2023/05/15 08:35:07;;;;;;;6.40;4.05;;;15.90;98.70;;;15.35;100.00;96919.13;6127432;23;20476;-83
2023/05/15 08:37:33;;;;;;;3.63;2.78;;;16.00;98.20;;;15.33;100.00;96914.13;6103134;23;20372;-79
2023/05/15 08:39:59;;;;;;;5.70;3.75;;;16.00;99.90;;;15.40;100.00;96924.41;6130782;23;20368;-82
2023/05/15 08:42:32;;;;;;;5.03;3.90;;;16.00;98.90;;;15.34;100.00;96926.34;6134665;23;20396;-84
2023/05/15 08:44:59;;;;;;;5.47;3.70;;;16.00;98.80;;;15.41;100.00;96918.00;6137096;23;20990;-82
2023/05/15 08:47:33;;;;;;;4.13;3.20;;;16.00;99.10;;;15.58;100.00;96914.78;6132980;23;20388;-83
2023/05/15 08:50:04;;;;;;;4.05;2.85;;;16.20;98.30;;;15.72;100.00;96907.56;6132957;23;20368;-80
2023/05/15 08:52:32;;;;;;;5.30;2.80;;;16.30;99.70;;;15.81;100.00;96911.94;6132230;23;20369;-81
2023/05/15 08:55:00;;;;;;;3.75;3.08;;;16.40;98.90;;;15.95;100.00;96903.13;6131614;23;20377;-81
2023/05/15 08:57:27;;;;;;;5.53;3.80;;;16.50;98.70;;;16.08;100.00;96902.38;6129960;23;20396;-79
2023/05/15 08:59:54;;;;;;;5.50;4.17;;;16.70;98.70;;;16.23;100.00;96907.41;6128984;23;20439;-79
2023/05/15 09:02:21;;;;;;;4.10;3.35;;;16.80;98.90;;;16.49;100.00;96907.63;6127477;23;20376;-80
2023/05/15 09:04:48;;;;;;;3.75;3.22;;;17.00;96.10;;;16.63;97.58;96901.19;6128542;23;20368;-79
2023/05/15 09:07:15;;;;;;;7.38;3.45;;;17.20;92.50;;;16.67;98.87;96904.06;6131015;23;20406;-79
2023/05/15 09:09:43;;;;;;;4.70;2.90;;;17.20;92.90;;;16.67;98.14;96903.28;6131871;23;20448;-80
2023/05/15 09:12:13;;;;;;;3.83;3.20;;;17.30;92.60;;;16.72;96.64;96900.47;6132469;23;20713;-81
2023/05/15 09:14:39;;;;;;;3.50;2.60;;;17.30;92.00;;;16.80;98.89;96891.75;6134531;23;20365;-79
2023/05/15 09:17:05;;;;;;;5.40;3.63;;;17.30;92.90;;;17.23;94.10;96900.88;6133078;23;20448;-84
2023/05/15 09:19:33;;;;;;;5.15;3.45;;;17.60;91.70;;;17.14;98.83;96897.34;6131220;23;20744;-80
2023/05/15 09:22:16;;;;;;;7.35;3.28;;;17.70;92.50;;;17.23;100.00;96902.75;6129392;23;20471;-80
2023/05/15 09:24:46;;;;;;;4.05;3.00;;;17.80;92.90;;;17.21;100.00;96908.41;6128291;23;20412;-80
2023/05/15 09:27:13;;;;;;;14.43;6.80;;;17.80;93.10;;;17.25;100.00;96904.03;6127644;23;21069;-80
2023/05/15 09:29:39;;;;;;;5.72;3.35;;;17.80;93.50;;;17.39;100.00;96895.91;6124991;23;20373;-78
2023/05/15 09:32:07;;;;;;;4.68;3.53;;;18.00;94.10;;;17.64;100.00;96895.31;6124997;23;20381;-79
2023/05/15 09:34:35;;;;;;;4.50;3.00;;;18.20;94.70;;;17.81;100.00;96896.47;6099788;23;20914;-76
2023/05/15 09:37:05;;;;;;;4.53;2.97;;;18.30;93.10;;;17.97;100.00;96894.94;6125040;23;20585;-82
2023/05/15 09:39:31;;;;;;;5.87;3.60;;;18.50;93.10;;;18.09;98.52;96897.84;6128445;23;20377;-80
2023/05/15 09:42:06;;;;;;;4.00;3.08;;;18.60;92.10;;;18.39;97.93;96888.94;6128559;23;20373;-78
2023/05/15 09:44:33;;;;;;;4.30;2.73;;;18.90;92.00;;;18.69;97.85;96881.09;6104888;23;20860;-80
2023/05/15 09:46:59;;;;;;;4.60;2.83;;;19.10;92.10;;;18.92;98.97;96883.31;6130720;23;20408;-81
2023/05/15 09:49:27;;;;;;;3.53;2.67;;;19.40;92.20;;;19.08;97.15;96893.56;6131372;23;20486;-80
2023/05/15 09:51:54;;;;;;;3.47;3.00;;;19.60;91.60;;;19.33;93.65;96890.03;6132436;23;20373;-80
2023/05/15 09:54:22;;;;;;;3.78;2.92;;;19.80;90.60;;;19.59;93.55;96879.25;6127993;23;20373;-79
2023/05/15 09:56:48;;;;;;;5.10;3.30;;;20.00;90.80;;;19.75;89.88;96888.38;6126089;23;20431;-78
2023/05/15 09:59:20;;;;;;;7.82;3.20;;;20.30;87.80;;;19.73;85.26;96884.41;6130353;23;20373;-80
2023/05/15 10:01:50;;;;;;;3.40;2.67;;;20.30;83.70;;;19.99;86.38;96872.47;6132945;23;20455;-82
2023/05/15 10:04:16;;;;;;;4.35;2.75;;;20.60;85.20;;;20.24;81.20;96876.09;6129519;23;20453;-81
2023/05/15 10:06:45;;;;;;;4.90;2.90;;;20.90;80.60;;;20.37;83.17;96874.34;6127339;23;20421;-81
2023/05/15 10:09:12;;;;;;;6.88;3.10;;;21.10;81.40;;;20.64;78.31;96883.78;6127580;23;20396;-82
2023/05/15 10:11:44;;;;;;;3.75;2.67;;;21.30;77.40;;;21.10;78.82;96872.00;6128355;23;20379;-81
2023/05/15 10:14:12;;;;;;;2.55;2.28;;;21.70;77.80;;;21.49;77.68;96862.63;6127929;23;20381;-82